Saltillo, Pennsylvania
Current Conditions -  °F | °C
As of 5:53 AM on Friday 31 Oct 2014 (Local Time) from KAOO Reporting Station
Overcast Overcast  
Wind Chill: 42°   Ceiling: 4700
Heat Index: 42°   Visibility: 10mi
Dew Point: 40°   Wind: 0mph
Humidity: 92%   Direction: NA
Pressure: 29.97"   Gusts: NA
Location:  40.21°N, 78.01°W
Report Text: KAOO 310953Z AUTO 00000KT 10SM OVC047 06/04 A2997 RMK AO2 SLP157 T00560044 $
Loading
Personal Weather Stations






























Interactive Weather Map
Tropical Storm Tracking
New forecast layout! Learn more

10-Day Weather Forecast

Advertisements
Track Severe Weather on mobile